Portada
METAR-TAF:

METAR-TAF

Aeroports :

Al-Kuwait, Kuwait

latitud: 29-13N, longitud: 047-59E, altitud: 55 m

Observació

L'informe es va fer fa 29 minuts, a les 19:00 UTC
Vent 3 kt del Sud/Sud-Est
Temperatura 27°C
Humitat 70%
Pressió 1015 hPa
Visibilitat: 5000 m
Cel clar

METAR: OKBK 151900Z 15003KT 5000 SKC 27/21 Q1015 NOSIG

Hora: 22:29 (19:29 UTC)

Pronòstic

L'informe es va fer fa 2 hores i 44 minuts, a les 16:45 UTC
Pronòstic vàlid del 15 a les 18 UTC al 16 a les 24 UTC
Vent 12 kt del Sud
Visibilitat: 7000 m
Temporalment
l' 16 a les 00 UTC al 16 a les 04 UTC
Vent 3 kt amb direcció variable
Visibilitat: 3000 m

TAF: OKBK 151645Z 1518/1624 17012KT 7000 NSC TEMPO 1600/1604 VRB03KT 3000 HZ/BR

Observacions i pronòstics meteorològics de més de 4000 aeroports (METAR i TAF).

Les estacions disponibles són els punts grocs i vermells al mapa.

Posi el ratolí al punt desitjat per veure el nom de l'estació.

Feu clic per veure les observacions i els pronòstics meteorològics.

Per canviar el mapa: feu clic els botons verds amb una creu de color negre per apropar; al botó verd amb un guió per allunyar la imatge; o en les fletxes verdes per a mapes adjacents.


METAR-TAF: